sensor_id;sensor_type;location;lat;lon;timestamp;P1;durP1;ratioP1;P2;durP2;ratioP2
49948;SDS011;35840;45.982;8.890;2023-07-31T00:01:32;2.60;;;1.77;;
49948;SDS011;35840;45.982;8.890;2023-07-31T00:03:59;4.28;;;2.50;;
49948;SDS011;35840;45.982;8.890;2023-07-31T00:06:26;2.03;;;1.63;;
49948;SDS011;35840;45.982;8.890;2023-07-31T00:08:53;1.95;;;1.80;;
49948;SDS011;35840;45.982;8.890;2023-07-31T00:11:19;2.17;;;1.92;;
49948;SDS011;35840;45.982;8.890;2023-07-31T00:13:46;2.70;;;1.88;;
49948;SDS011;35840;45.982;8.890;2023-07-31T00:16:13;4.88;;;1.92;;
49948;SDS011;35840;45.982;8.890;2023-07-31T00:18:40;3.63;;;1.90;;
49948;SDS011;35840;45.982;8.890;2023-07-31T00:21:07;3.35;;;1.80;;
49948;SDS011;35840;45.982;8.890;2023-07-31T00:23:33;2.85;;;1.88;;
49948;SDS011;35840;45.982;8.890;2023-07-31T00:26:00;2.30;;;2.10;;
49948;SDS011;35840;45.982;8.890;2023-07-31T00:28:27;3.85;;;1.50;;
49948;SDS011;35840;45.982;8.890;2023-07-31T00:30:55;2.35;;;2.15;;
49948;SDS011;35840;45.982;8.890;2023-07-31T00:33:24;2.05;;;1.85;;
49948;SDS011;35840;45.982;8.890;2023-07-31T00:35:51;2.25;;;1.92;;
49948;SDS011;35840;45.982;8.890;2023-07-31T00:38:18;2.47;;;1.77;;
49948;SDS011;35840;45.982;8.890;2023-07-31T00:40:45;4.03;;;1.92;;
49948;SDS011;35840;45.982;8.890;2023-07-31T00:43:11;1.63;;;1.50;;
49948;SDS011;35840;45.982;8.890;2023-07-31T00:45:40;2.78;;;1.85;;
49948;SDS011;35840;45.982;8.890;2023-07-31T00:48:07;3.17;;;2.33;;
49948;SDS011;35840;45.982;8.890;2023-07-31T00:50:34;2.50;;;2.00;;
49948;SDS011;35840;45.982;8.890;2023-07-31T00:53:01;1.60;;;1.50;;
49948;SDS011;35840;45.982;8.890;2023-07-31T00:55:28;4.85;;;1.88;;
49948;SDS011;35840;45.982;8.890;2023-07-31T00:57:56;2.47;;;2.00;;
49948;SDS011;35840;45.982;8.890;2023-07-31T01:00:22;2.08;;;1.48;;
49948;SDS011;35840;45.982;8.890;2023-07-31T01:02:50;3.10;;;1.95;;
49948;SDS011;35840;45.982;8.890;2023-07-31T01:05:23;3.28;;;1.88;;
49948;SDS011;35840;45.982;8.890;2023-07-31T01:08:04;2.30;;;2.08;;
49948;SDS011;35840;45.982;8.890;2023-07-31T01:10:42;2.47;;;1.88;;
49948;SDS011;35840;45.982;8.890;2023-07-31T01:13:16;4.22;;;2.13;;
49948;SDS011;35840;45.982;8.890;2023-07-31T01:15:44;1.90;;;1.70;;
49948;SDS011;35840;45.982;8.890;2023-07-31T01:18:11;2.13;;;1.85;;
49948;SDS011;35840;45.982;8.890;2023-07-31T01:20:37;2.17;;;1.98;;
49948;SDS011;35840;45.982;8.890;2023-07-31T01:31:24;4.47;;;1.90;;
49948;SDS011;35840;45.982;8.890;2023-07-31T01:33:53;2.42;;;2.20;;
49948;SDS011;35840;45.982;8.890;2023-07-31T01:36:21;2.30;;;2.05;;
49948;SDS011;35840;45.982;8.890;2023-07-31T01:38:48;2.10;;;1.90;;
49948;SDS011;35840;45.982;8.890;2023-07-31T01:41:17;2.30;;;2.03;;
49948;SDS011;35840;45.982;8.890;2023-07-31T01:43:45;1.90;;;1.70;;
49948;SDS011;35840;45.982;8.890;2023-07-31T01:46:12;2.67;;;1.92;;
49948;SDS011;35840;45.982;8.890;2023-07-31T01:48:39;2.42;;;2.00;;
49948;SDS011;35840;45.982;8.890;2023-07-31T01:51:06;2.13;;;1.75;;
49948;SDS011;35840;45.982;8.890;2023-07-31T01:53:32;2.10;;;1.90;;
49948;SDS011;35840;45.982;8.890;2023-07-31T01:55:59;3.38;;;1.83;;
49948;SDS011;35840;45.982;8.890;2023-07-31T01:58:26;2.78;;;2.08;;
49948;SDS011;35840;45.982;8.890;2023-07-31T02:00:53;3.30;;;1.92;;
49948;SDS011;35840;45.982;8.890;2023-07-31T02:03:20;3.97;;;1.98;;
49948;SDS011;35840;45.982;8.890;2023-07-31T02:05:47;2.00;;;1.80;;
49948;SDS011;35840;45.982;8.890;2023-07-31T02:08:15;2.47;;;1.65;;
49948;SDS011;35840;45.982;8.890;2023-07-31T02:10:43;2.72;;;1.80;;
49948;SDS011;35840;45.982;8.890;2023-07-31T02:13:10;1.70;;;1.60;;
49948;SDS011;35840;45.982;8.890;2023-07-31T02:15:37;2.95;;;1.90;;
49948;SDS011;35840;45.982;8.890;2023-07-31T02:18:04;1.88;;;1.75;;
49948;SDS011;35840;45.982;8.890;2023-07-31T02:20:33;2.30;;;1.73;;
49948;SDS011;35840;45.982;8.890;2023-07-31T02:23:01;4.85;;;2.20;;
49948;SDS011;35840;45.982;8.890;2023-07-31T02:25:28;1.95;;;1.80;;
49948;SDS011;35840;45.982;8.890;2023-07-31T02:27:55;2.05;;;1.83;;
49948;SDS011;35840;45.982;8.890;2023-07-31T02:30:22;2.35;;;2.00;;
49948;SDS011;35840;45.982;8.890;2023-07-31T02:32:49;1.80;;;1.70;;
49948;SDS011;35840;45.982;8.890;2023-07-31T02:35:16;3.47;;;2.40;;
49948;SDS011;35840;45.982;8.890;2023-07-31T02:37:45;3.63;;;1.90;;
49948;SDS011;35840;45.982;8.890;2023-07-31T02:40:12;3.70;;;2.00;;
49948;SDS011;35840;45.982;8.890;2023-07-31T02:42:39;2.67;;;1.88;;
49948;SDS011;35840;45.982;8.890;2023-07-31T02:45:06;2.55;;;2.00;;
49948;SDS011;35840;45.982;8.890;2023-07-31T02:47:33;2.70;;;1.80;;
49948;SDS011;35840;45.982;8.890;2023-07-31T02:50:01;2.28;;;2.08;;
49948;SDS011;35840;45.982;8.890;2023-07-31T02:52:31;3.95;;;1.90;;
49948;SDS011;35840;45.982;8.890;2023-07-31T02:54:58;3.60;;;1.92;;
49948;SDS011;35840;45.982;8.890;2023-07-31T02:57:25;1.50;;;1.40;;
49948;SDS011;35840;45.982;8.890;2023-07-31T02:59:51;2.45;;;1.90;;
49948;SDS011;35840;45.982;8.890;2023-07-31T03:02:18;2.47;;;1.65;;
49948;SDS011;35840;45.982;8.890;2023-07-31T03:04:45;2.33;;;1.83;;
49948;SDS011;35840;45.982;8.890;2023-07-31T03:07:13;2.08;;;1.75;;
49948;SDS011;35840;45.982;8.890;2023-07-31T03:09:40;3.60;;;2.10;;
49948;SDS011;35840;45.982;8.890;2023-07-31T03:12:08;3.97;;;1.67;;
49948;SDS011;35840;45.982;8.890;2023-07-31T03:14:35;3.95;;;2.08;;
49948;SDS011;35840;45.982;8.890;2023-07-31T03:17:02;3.30;;;2.20;;
49948;SDS011;35840;45.982;8.890;2023-07-31T03:19:32;4.68;;;2.08;;
49948;SDS011;35840;45.982;8.890;2023-07-31T03:21:59;1.85;;;1.65;;
49948;SDS011;35840;45.982;8.890;2023-07-31T03:24:28;2.97;;;1.83;;
49948;SDS011;35840;45.982;8.890;2023-07-31T03:26:55;2.40;;;1.70;;
49948;SDS011;35840;45.982;8.890;2023-07-31T03:29:22;2.78;;;1.83;;
49948;SDS011;35840;45.982;8.890;2023-07-31T03:31:51;2.28;;;2.08;;
49948;SDS011;35840;45.982;8.890;2023-07-31T03:34:18;2.22;;;1.70;;
49948;SDS011;35840;45.982;8.890;2023-07-31T03:36:45;2.00;;;1.70;;
49948;SDS011;35840;45.982;8.890;2023-07-31T03:39:12;2.40;;;2.20;;
49948;SDS011;35840;45.982;8.890;2023-07-31T03:41:38;2.05;;;1.85;;
49948;SDS011;35840;45.982;8.890;2023-07-31T03:44:05;2.03;;;1.90;;
49948;SDS011;35840;45.982;8.890;2023-07-31T03:46:32;2.53;;;1.90;;
49948;SDS011;35840;45.982;8.890;2023-07-31T03:49:00;4.13;;;1.83;;
49948;SDS011;35840;45.982;8.890;2023-07-31T03:51:26;2.60;;;1.73;;
49948;SDS011;35840;45.982;8.890;2023-07-31T03:53:53;2.50;;;1.73;;
49948;SDS011;35840;45.982;8.890;2023-07-31T03:56:20;2.30;;;2.10;;
49948;SDS011;35840;45.982;8.890;2023-07-31T03:58:47;2.00;;;1.73;;
49948;SDS011;35840;45.982;8.890;2023-07-31T04:01:14;2.55;;;1.90;;
49948;SDS011;35840;45.982;8.890;2023-07-31T04:03:40;3.53;;;2.22;;
49948;SDS011;35840;45.982;8.890;2023-07-31T04:06:07;3.30;;;1.95;;
49948;SDS011;35840;45.982;8.890;2023-07-31T04:08:34;2.28;;;1.80;;
49948;SDS011;35840;45.982;8.890;2023-07-31T04:11:01;1.90;;;1.80;;
49948;SDS011;35840;45.982;8.890;2023-07-31T04:13:29;2.53;;;1.38;;
49948;SDS011;35840;45.982;8.890;2023-07-31T04:15:56;2.60;;;1.92;;
49948;SDS011;35840;45.982;8.890;2023-07-31T04:18:24;2.85;;;2.10;;
49948;SDS011;35840;45.982;8.890;2023-07-31T04:20:51;3.85;;;2.10;;
49948;SDS011;35840;45.982;8.890;2023-07-31T04:23:18;4.20;;;2.15;;
49948;SDS011;35840;45.982;8.890;2023-07-31T04:25:44;3.50;;;2.00;;
49948;SDS011;35840;45.982;8.890;2023-07-31T04:28:11;2.95;;;2.00;;
49948;SDS011;35840;45.982;8.890;2023-07-31T04:30:38;2.83;;;2.10;;
49948;SDS011;35840;45.982;8.890;2023-07-31T04:33:05;3.63;;;2.22;;
49948;SDS011;35840;45.982;8.890;2023-07-31T04:35:32;2.83;;;2.13;;
49948;SDS011;35840;45.982;8.890;2023-07-31T04:37:59;3.33;;;2.40;;
49948;SDS011;35840;45.982;8.890;2023-07-31T04:40:26;3.20;;;2.28;;
49948;SDS011;35840;45.982;8.890;2023-07-31T04:42:52;3.28;;;1.83;;
49948;SDS011;35840;45.982;8.890;2023-07-31T04:45:19;4.28;;;2.13;;
49948;SDS011;35840;45.982;8.890;2023-07-31T04:47:46;2.35;;;1.67;;
49948;SDS011;35840;45.982;8.890;2023-07-31T04:50:12;3.80;;;2.22;;
49948;SDS011;35840;45.982;8.890;2023-07-31T04:52:39;2.42;;;2.22;;
49948;SDS011;35840;45.982;8.890;2023-07-31T04:55:06;1.92;;;1.73;;
49948;SDS011;35840;45.982;8.890;2023-07-31T04:57:33;2.88;;;2.08;;
49948;SDS011;35840;45.982;8.890;2023-07-31T04:59:59;1.80;;;1.67;;
49948;SDS011;35840;45.982;8.890;2023-07-31T05:02:26;2.40;;;1.83;;
49948;SDS011;35840;45.982;8.890;2023-07-31T05:04:53;2.58;;;2.10;;
49948;SDS011;35840;45.982;8.890;2023-07-31T05:07:20;2.38;;;2.17;;
49948;SDS011;35840;45.982;8.890;2023-07-31T05:09:47;4.90;;;2.35;;
49948;SDS011;35840;45.982;8.890;2023-07-31T05:12:13;4.40;;;2.13;;
49948;SDS011;35840;45.982;8.890;2023-07-31T05:14:41;2.67;;;2.30;;
49948;SDS011;35840;45.982;8.890;2023-07-31T05:17:08;2.85;;;2.47;;
49948;SDS011;35840;45.982;8.890;2023-07-31T05:19:35;3.97;;;1.88;;
49948;SDS011;35840;45.982;8.890;2023-07-31T05:22:01;2.40;;;2.20;;
49948;SDS011;35840;45.982;8.890;2023-07-31T05:24:28;4.55;;;2.25;;
49948;SDS011;35840;45.982;8.890;2023-07-31T05:26:55;3.78;;;2.35;;
49948;SDS011;35840;45.982;8.890;2023-07-31T05:29:22;3.08;;;2.08;;
49948;SDS011;35840;45.982;8.890;2023-07-31T05:31:48;5.00;;;2.55;;
49948;SDS011;35840;45.982;8.890;2023-07-31T05:34:15;4.07;;;2.33;;
49948;SDS011;35840;45.982;8.890;2023-07-31T05:36:42;3.97;;;2.78;;
49948;SDS011;35840;45.982;8.890;2023-07-31T05:39:08;2.97;;;2.25;;
49948;SDS011;35840;45.982;8.890;2023-07-31T05:41:35;2.83;;;2.20;;
49948;SDS011;35840;45.982;8.890;2023-07-31T05:44:02;3.30;;;2.40;;
49948;SDS011;35840;45.982;8.890;2023-07-31T05:46:29;4.22;;;2.53;;
49948;SDS011;35840;45.982;8.890;2023-07-31T05:48:58;2.55;;;2.25;;
49948;SDS011;35840;45.982;8.890;2023-07-31T05:51:27;3.47;;;2.70;;
49948;SDS011;35840;45.982;8.890;2023-07-31T05:53:54;7.43;;;3.55;;
49948;SDS011;35840;45.982;8.890;2023-07-31T05:56:21;10.43;;;3.95;;
49948;SDS011;35840;45.982;8.890;2023-07-31T05:58:48;11.85;;;3.45;;
49948;SDS011;35840;45.982;8.890;2023-07-31T06:01:16;6.85;;;3.10;;
49948;SDS011;35840;45.982;8.890;2023-07-31T06:03:44;9.13;;;3.33;;
49948;SDS011;35840;45.982;8.890;2023-07-31T06:06:11;6.07;;;2.97;;
49948;SDS011;35840;45.982;8.890;2023-07-31T06:08:38;4.40;;;2.65;;
49948;SDS011;35840;45.982;8.890;2023-07-31T06:11:04;2.80;;;2.38;;
49948;SDS011;35840;45.982;8.890;2023-07-31T06:13:32;3.38;;;2.67;;
49948;SDS011;35840;45.982;8.890;2023-07-31T06:15:59;3.20;;;2.22;;
49948;SDS011;35840;45.982;8.890;2023-07-31T06:18:26;2.88;;;2.40;;
49948;SDS011;35840;45.982;8.890;2023-07-31T06:20:53;3.40;;;2.60;;
49948;SDS011;35840;45.982;8.890;2023-07-31T06:23:20;3.58;;;2.08;;
49948;SDS011;35840;45.982;8.890;2023-07-31T06:25:47;2.95;;;2.13;;
49948;SDS011;35840;45.982;8.890;2023-07-31T06:28:14;2.50;;;2.15;;
49948;SDS011;35840;45.982;8.890;2023-07-31T06:30:41;4.30;;;2.03;;
49948;SDS011;35840;45.982;8.890;2023-07-31T06:33:08;3.80;;;2.20;;
49948;SDS011;35840;45.982;8.890;2023-07-31T06:35:35;3.47;;;2.38;;
49948;SDS011;35840;45.982;8.890;2023-07-31T06:38:02;2.05;;;1.85;;
49948;SDS011;35840;45.982;8.890;2023-07-31T06:40:29;2.47;;;2.28;;
49948;SDS011;35840;45.982;8.890;2023-07-31T06:42:56;2.72;;;2.13;;
49948;SDS011;35840;45.982;8.890;2023-07-31T06:45:23;4.60;;;2.08;;
49948;SDS011;35840;45.982;8.890;2023-07-31T06:47:50;3.35;;;2.25;;
49948;SDS011;35840;45.982;8.890;2023-07-31T06:50:17;3.03;;;2.17;;
49948;SDS011;35840;45.982;8.890;2023-07-31T06:52:43;4.97;;;2.03;;
49948;SDS011;35840;45.982;8.890;2023-07-31T06:55:18;2.83;;;2.40;;
49948;SDS011;35840;45.982;8.890;2023-07-31T06:57:46;2.67;;;2.00;;
49948;SDS011;35840;45.982;8.890;2023-07-31T07:00:14;2.35;;;1.80;;
49948;SDS011;35840;45.982;8.890;2023-07-31T07:02:41;3.40;;;2.35;;
49948;SDS011;35840;45.982;8.890;2023-07-31T07:05:08;4.80;;;2.40;;
49948;SDS011;35840;45.982;8.890;2023-07-31T07:07:35;2.83;;;2.13;;
49948;SDS011;35840;45.982;8.890;2023-07-31T07:10:03;3.13;;;2.45;;
49948;SDS011;35840;45.982;8.890;2023-07-31T07:12:30;3.55;;;2.55;;
49948;SDS011;35840;45.982;8.890;2023-07-31T07:14:58;2.85;;;2.28;;
49948;SDS011;35840;45.982;8.890;2023-07-31T07:17:26;3.58;;;2.20;;
49948;SDS011;35840;45.982;8.890;2023-07-31T07:19:54;2.20;;;1.80;;
49948;SDS011;35840;45.982;8.890;2023-07-31T07:22:22;2.20;;;2.00;;
49948;SDS011;35840;45.982;8.890;2023-07-31T07:24:49;4.95;;;2.30;;
49948;SDS011;35840;45.982;8.890;2023-07-31T07:27:16;2.30;;;2.00;;
49948;SDS011;35840;45.982;8.890;2023-07-31T07:29:43;2.92;;;2.30;;
49948;SDS011;35840;45.982;8.890;2023-07-31T07:32:10;2.55;;;2.17;;
49948;SDS011;35840;45.982;8.890;2023-07-31T07:34:38;3.42;;;2.50;;
49948;SDS011;35840;45.982;8.890;2023-07-31T07:37:05;2.90;;;2.60;;
49948;SDS011;35840;45.982;8.890;2023-07-31T07:39:32;2.97;;;2.38;;
49948;SDS011;35840;45.982;8.890;2023-07-31T07:41:59;4.00;;;2.05;;
49948;SDS011;35840;45.982;8.890;2023-07-31T07:44:25;2.60;;;2.30;;
49948;SDS011;35840;45.982;8.890;2023-07-31T07:46:53;2.08;;;1.67;;
49948;SDS011;35840;45.982;8.890;2023-07-31T07:49:20;2.60;;;2.10;;
49948;SDS011;35840;45.982;8.890;2023-07-31T07:51:49;3.05;;;2.25;;
49948;SDS011;35840;45.982;8.890;2023-07-31T07:54:16;2.03;;;1.80;;
49948;SDS011;35840;45.982;8.890;2023-07-31T07:56:47;2.95;;;2.20;;
49948;SDS011;35840;45.982;8.890;2023-07-31T07:59:14;2.95;;;1.88;;
49948;SDS011;35840;45.982;8.890;2023-07-31T08:01:41;2.22;;;2.03;;
49948;SDS011;35840;45.982;8.890;2023-07-31T08:04:08;3.80;;;2.30;;
49948;SDS011;35840;45.982;8.890;2023-07-31T08:06:34;4.70;;;2.30;;
49948;SDS011;35840;45.982;8.890;2023-07-31T08:09:01;7.03;;;2.45;;
49948;SDS011;35840;45.982;8.890;2023-07-31T08:11:32;2.17;;;1.80;;
49948;SDS011;35840;45.982;8.890;2023-07-31T08:13:59;3.17;;;2.28;;
49948;SDS011;35840;45.982;8.890;2023-07-31T08:16:26;2.50;;;2.00;;
49948;SDS011;35840;45.982;8.890;2023-07-31T08:18:54;2.97;;;2.30;;
49948;SDS011;35840;45.982;8.890;2023-07-31T08:21:21;4.25;;;1.83;;
49948;SDS011;35840;45.982;8.890;2023-07-31T08:23:48;2.08;;;1.85;;
49948;SDS011;35840;45.982;8.890;2023-07-31T08:26:15;2.38;;;2.15;;
49948;SDS011;35840;45.982;8.890;2023-07-31T08:28:43;2.47;;;2.25;;
49948;SDS011;35840;45.982;8.890;2023-07-31T08:31:10;2.90;;;2.08;;
49948;SDS011;35840;45.982;8.890;2023-07-31T08:33:38;2.90;;;2.33;;
49948;SDS011;35840;45.982;8.890;2023-07-31T08:36:05;2.75;;;2.35;;
49948;SDS011;35840;45.982;8.890;2023-07-31T08:38:33;3.65;;;2.33;;
49948;SDS011;35840;45.982;8.890;2023-07-31T08:41:00;3.05;;;2.38;;
49948;SDS011;35840;45.982;8.890;2023-07-31T08:43:27;5.93;;;2.40;;
49948;SDS011;35840;45.982;8.890;2023-07-31T08:45:54;2.50;;;2.30;;
49948;SDS011;35840;45.982;8.890;2023-07-31T08:48:21;5.60;;;3.17;;
49948;SDS011;35840;45.982;8.890;2023-07-31T08:50:49;2.85;;;2.15;;
49948;SDS011;35840;45.982;8.890;2023-07-31T08:53:17;4.05;;;2.40;;
49948;SDS011;35840;45.982;8.890;2023-07-31T08:55:45;5.20;;;2.28;;
49948;SDS011;35840;45.982;8.890;2023-07-31T08:58:13;3.35;;;2.63;;
49948;SDS011;35840;45.982;8.890;2023-07-31T09:00:40;2.50;;;1.90;;
49948;SDS011;35840;45.982;8.890;2023-07-31T09:03:14;3.50;;;2.80;;
49948;SDS011;35840;45.982;8.890;2023-07-31T09:05:43;3.60;;;2.63;;
49948;SDS011;35840;45.982;8.890;2023-07-31T09:08:12;2.60;;;2.40;;
49948;SDS011;35840;45.982;8.890;2023-07-31T09:10:42;2.80;;;2.50;;
49948;SDS011;35840;45.982;8.890;2023-07-31T09:13:12;2.88;;;2.47;;
49948;SDS011;35840;45.982;8.890;2023-07-31T09:15:44;6.93;;;3.15;;
49948;SDS011;35840;45.982;8.890;2023-07-31T09:18:12;5.30;;;2.45;;
49948;SDS011;35840;45.982;8.890;2023-07-31T09:20:41;5.32;;;2.92;;
49948;SDS011;35840;45.982;8.890;2023-07-31T09:23:11;6.57;;;3.75;;
49948;SDS011;35840;45.982;8.890;2023-07-31T09:25:41;6.80;;;3.22;;
49948;SDS011;35840;45.982;8.890;2023-07-31T09:28:10;5.55;;;3.60;;
49948;SDS011;35840;45.982;8.890;2023-07-31T09:31:12;6.90;;;3.85;;
49948;SDS011;35840;45.982;8.890;2023-07-31T09:33:32;7.40;;;4.43;;
49948;SDS011;35840;45.982;8.890;2023-07-31T09:35:59;5.68;;;2.78;;
49948;SDS011;35840;45.982;8.890;2023-07-31T09:38:27;4.80;;;2.85;;
49948;SDS011;35840;45.982;8.890;2023-07-31T09:40:54;4.28;;;3.28;;
49948;SDS011;35840;45.982;8.890;2023-07-31T09:43:21;5.47;;;3.28;;
49948;SDS011;35840;45.982;8.890;2023-07-31T09:45:52;4.78;;;2.90;;
49948;SDS011;35840;45.982;8.890;2023-07-31T09:48:23;4.43;;;3.28;;
49948;SDS011;35840;45.982;8.890;2023-07-31T09:50:52;11.98;;;6.38;;
49948;SDS011;35840;45.982;8.890;2023-07-31T09:53:19;4.65;;;3.60;;
49948;SDS011;35840;45.982;8.890;2023-07-31T09:55:57;5.03;;;2.63;;
49948;SDS011;35840;45.982;8.890;2023-07-31T09:58:25;8.98;;;3.88;;
49948;SDS011;35840;45.982;8.890;2023-07-31T10:00:55;4.63;;;2.90;;
49948;SDS011;35840;45.982;8.890;2023-07-31T10:03:25;4.90;;;3.15;;
49948;SDS011;35840;45.982;8.890;2023-07-31T10:05:53;9.23;;;4.78;;
49948;SDS011;35840;45.982;8.890;2023-07-31T10:08:23;4.68;;;3.10;;
49948;SDS011;35840;45.982;8.890;2023-07-31T10:10:59;7.38;;;4.55;;
49948;SDS011;35840;45.982;8.890;2023-07-31T10:13:29;7.10;;;4.07;;
49948;SDS011;35840;45.982;8.890;2023-07-31T10:15:58;4.55;;;3.15;;
49948;SDS011;35840;45.982;8.890;2023-07-31T10:18:27;5.30;;;3.25;;
49948;SDS011;35840;45.982;8.890;2023-07-31T10:20:55;6.68;;;2.90;;
49948;SDS011;35840;45.982;8.890;2023-07-31T10:23:23;3.53;;;2.80;;
49948;SDS011;35840;45.982;8.890;2023-07-31T10:25:53;3.95;;;2.72;;
49948;SDS011;35840;45.982;8.890;2023-07-31T10:28:20;4.95;;;3.53;;
49948;SDS011;35840;45.982;8.890;2023-07-31T10:30:47;3.33;;;2.97;;
49948;SDS011;35840;45.982;8.890;2023-07-31T10:33:17;6.55;;;3.65;;
49948;SDS011;35840;45.982;8.890;2023-07-31T10:35:47;4.88;;;3.30;;
49948;SDS011;35840;45.982;8.890;2023-07-31T10:38:15;12.88;;;5.72;;
49948;SDS011;35840;45.982;8.890;2023-07-31T10:40:42;32.45;;;13.80;;
49948;SDS011;35840;45.982;8.890;2023-07-31T10:43:09;13.23;;;6.63;;
49948;SDS011;35840;45.982;8.890;2023-07-31T10:45:50;2.85;;;2.65;;
49948;SDS011;35840;45.982;8.890;2023-07-31T10:48:17;4.22;;;3.22;;
49948;SDS011;35840;45.982;8.890;2023-07-31T10:50:48;4.10;;;3.70;;
49948;SDS011;35840;45.982;8.890;2023-07-31T10:53:28;3.45;;;3.15;;
49948;SDS011;35840;45.982;8.890;2023-07-31T10:56:00;11.07;;;6.07;;
49948;SDS011;35840;45.982;8.890;2023-07-31T10:58:28;11.77;;;6.40;;
49948;SDS011;35840;45.982;8.890;2023-07-31T11:00:55;6.78;;;3.67;;
49948;SDS011;35840;45.982;8.890;2023-07-31T11:03:27;3.90;;;2.95;;
49948;SDS011;35840;45.982;8.890;2023-07-31T11:06:08;3.92;;;3.53;;
49948;SDS011;35840;45.982;8.890;2023-07-31T11:08:36;18.10;;;8.40;;
49948;SDS011;35840;45.982;8.890;2023-07-31T11:11:09;9.05;;;4.75;;
49948;SDS011;35840;45.982;8.890;2023-07-31T11:13:42;4.25;;;2.90;;
49948;SDS011;35840;45.982;8.890;2023-07-31T11:16:11;7.05;;;3.50;;
49948;SDS011;35840;45.982;8.890;2023-07-31T11:18:40;5.75;;;3.97;;
49948;SDS011;35840;45.982;8.890;2023-07-31T11:21:11;5.45;;;4.03;;
49948;SDS011;35840;45.982;8.890;2023-07-31T11:23:39;3.95;;;3.58;;
49948;SDS011;35840;45.982;8.890;2023-07-31T11:26:06;2.83;;;2.60;;
49948;SDS011;35840;45.982;8.890;2023-07-31T11:28:34;3.30;;;3.00;;
49948;SDS011;35840;45.982;8.890;2023-07-31T11:31:02;3.45;;;3.00;;
49948;SDS011;35840;45.982;8.890;2023-07-31T11:33:29;4.97;;;3.92;;
49948;SDS011;35840;45.982;8.890;2023-07-31T11:35:57;3.60;;;3.30;;
49948;SDS011;35840;45.982;8.890;2023-07-31T11:40:56;3.70;;;3.13;;
49948;SDS011;35840;45.982;8.890;2023-07-31T11:43:24;7.97;;;3.28;;
49948;SDS011;35840;45.982;8.890;2023-07-31T11:45:51;4.82;;;3.10;;
49948;SDS011;35840;45.982;8.890;2023-07-31T11:48:21;4.78;;;3.22;;
49948;SDS011;35840;45.982;8.890;2023-07-31T11:50:48;6.07;;;3.88;;
49948;SDS011;35840;45.982;8.890;2023-07-31T11:53:17;4.85;;;3.20;;
49948;SDS011;35840;45.982;8.890;2023-07-31T11:55:47;5.07;;;3.03;;
49948;SDS011;35840;45.982;8.890;2023-07-31T11:58:14;4.50;;;3.53;;
49948;SDS011;35840;45.982;8.890;2023-07-31T12:00:42;4.00;;;3.55;;
49948;SDS011;35840;45.982;8.890;2023-07-31T12:03:09;4.43;;;3.40;;
49948;SDS011;35840;45.982;8.890;2023-07-31T12:05:37;7.03;;;3.75;;
49948;SDS011;35840;45.982;8.890;2023-07-31T12:08:11;6.80;;;4.63;;
49948;SDS011;35840;45.982;8.890;2023-07-31T12:10:38;6.70;;;3.95;;
49948;SDS011;35840;45.982;8.890;2023-07-31T12:13:10;6.20;;;4.38;;
49948;SDS011;35840;45.982;8.890;2023-07-31T12:15:44;11.38;;;5.47;;
49948;SDS011;35840;45.982;8.890;2023-07-31T12:18:12;16.27;;;7.20;;
49948;SDS011;35840;45.982;8.890;2023-07-31T12:20:41;8.73;;;5.45;;
49948;SDS011;35840;45.982;8.890;2023-07-31T12:23:16;10.23;;;5.63;;
49948;SDS011;35840;45.982;8.890;2023-07-31T12:25:44;14.05;;;5.25;;
49948;SDS011;35840;45.982;8.890;2023-07-31T12:28:11;9.45;;;5.25;;
49948;SDS011;35840;45.982;8.890;2023-07-31T12:30:39;5.40;;;3.78;;
49948;SDS011;35840;45.982;8.890;2023-07-31T12:33:11;4.53;;;4.10;;
49948;SDS011;35840;45.982;8.890;2023-07-31T12:35:44;5.22;;;3.95;;
49948;SDS011;35840;45.982;8.890;2023-07-31T12:38:13;9.82;;;4.00;;
49948;SDS011;35840;45.982;8.890;2023-07-31T12:40:40;12.63;;;6.07;;
49948;SDS011;35840;45.982;8.890;2023-07-31T12:43:08;7.80;;;3.90;;
49948;SDS011;35840;45.982;8.890;2023-07-31T12:45:35;5.18;;;4.40;;
49948;SDS011;35840;45.982;8.890;2023-07-31T12:48:02;8.15;;;4.90;;
49948;SDS011;35840;45.982;8.890;2023-07-31T12:50:29;11.57;;;5.25;;
49948;SDS011;35840;45.982;8.890;2023-07-31T12:52:56;4.03;;;3.65;;
49948;SDS011;35840;45.982;8.890;2023-07-31T12:55:23;4.78;;;3.70;;
49948;SDS011;35840;45.982;8.890;2023-07-31T12:57:50;17.38;;;8.63;;
49948;SDS011;35840;45.982;8.890;2023-07-31T13:00:18;4.90;;;3.60;;
49948;SDS011;35840;45.982;8.890;2023-07-31T13:02:44;15.30;;;8.02;;
49948;SDS011;35840;45.982;8.890;2023-07-31T13:05:11;5.63;;;4.00;;
49948;SDS011;35840;45.982;8.890;2023-07-31T13:07:39;8.43;;;5.82;;
49948;SDS011;35840;45.982;8.890;2023-07-31T13:10:07;7.43;;;4.47;;
49948;SDS011;35840;45.982;8.890;2023-07-31T13:12:34;8.27;;;5.03;;
49948;SDS011;35840;45.982;8.890;2023-07-31T13:15:01;6.20;;;5.30;;
49948;SDS011;35840;45.982;8.890;2023-07-31T13:17:27;8.95;;;5.28;;
49948;SDS011;35840;45.982;8.890;2023-07-31T13:19:54;6.07;;;4.65;;
49948;SDS011;35840;45.982;8.890;2023-07-31T13:22:21;11.68;;;6.00;;
49948;SDS011;35840;45.982;8.890;2023-07-31T13:24:48;7.70;;;4.57;;
49948;SDS011;35840;45.982;8.890;2023-07-31T13:27:14;6.88;;;4.32;;
49948;SDS011;35840;45.982;8.890;2023-07-31T13:29:45;5.45;;;4.90;;
49948;SDS011;35840;45.982;8.890;2023-07-31T13:32:11;9.05;;;5.70;;
49948;SDS011;35840;45.982;8.890;2023-07-31T13:34:38;13.68;;;8.48;;
49948;SDS011;35840;45.982;8.890;2023-07-31T13:37:05;8.88;;;4.40;;
49948;SDS011;35840;45.982;8.890;2023-07-31T13:39:32;16.77;;;7.93;;
49948;SDS011;35840;45.982;8.890;2023-07-31T13:42:02;18.52;;;8.88;;
49948;SDS011;35840;45.982;8.890;2023-07-31T13:44:30;7.78;;;5.30;;
49948;SDS011;35840;45.982;8.890;2023-07-31T13:46:56;13.25;;;6.30;;
49948;SDS011;35840;45.982;8.890;2023-07-31T13:49:23;7.53;;;5.25;;
49948;SDS011;35840;45.982;8.890;2023-07-31T13:51:50;6.18;;;4.47;;
49948;SDS011;35840;45.982;8.890;2023-07-31T13:54:17;12.13;;;7.15;;
49948;SDS011;35840;45.982;8.890;2023-07-31T13:56:44;20.75;;;10.50;;
49948;SDS011;35840;45.982;8.890;2023-07-31T13:59:11;11.88;;;6.68;;
49948;SDS011;35840;45.982;8.890;2023-07-31T14:01:38;5.75;;;4.35;;
49948;SDS011;35840;45.982;8.890;2023-07-31T14:04:05;5.47;;;4.28;;
49948;SDS011;35840;45.982;8.890;2023-07-31T14:06:32;18.58;;;8.85;;
49948;SDS011;35840;45.982;8.890;2023-07-31T14:08:58;10.45;;;5.85;;
49948;SDS011;35840;45.982;8.890;2023-07-31T14:11:25;31.42;;;14.98;;
49948;SDS011;35840;45.982;8.890;2023-07-31T14:13:53;8.10;;;4.90;;
49948;SDS011;35840;45.982;8.890;2023-07-31T14:16:19;7.78;;;4.60;;
49948;SDS011;35840;45.982;8.890;2023-07-31T14:18:46;12.40;;;6.97;;
49948;SDS011;35840;45.982;8.890;2023-07-31T14:21:13;9.18;;;6.40;;
49948;SDS011;35840;45.982;8.890;2023-07-31T14:23:41;8.50;;;5.88;;
49948;SDS011;35840;45.982;8.890;2023-07-31T14:26:08;14.35;;;7.95;;
49948;SDS011;35840;45.982;8.890;2023-07-31T14:28:35;15.57;;;8.48;;
49948;SDS011;35840;45.982;8.890;2023-07-31T14:31:02;7.78;;;4.93;;
49948;SDS011;35840;45.982;8.890;2023-07-31T14:33:29;6.05;;;4.95;;
49948;SDS011;35840;45.982;8.890;2023-07-31T14:35:56;6.35;;;4.70;;
49948;SDS011;35840;45.982;8.890;2023-07-31T14:38:22;7.78;;;5.03;;
49948;SDS011;35840;45.982;8.890;2023-07-31T14:40:49;15.35;;;6.78;;
49948;SDS011;35840;45.982;8.890;2023-07-31T14:43:16;10.85;;;6.50;;
49948;SDS011;35840;45.982;8.890;2023-07-31T14:45:43;11.60;;;6.32;;
49948;SDS011;35840;45.982;8.890;2023-07-31T14:48:09;8.32;;;5.28;;
49948;SDS011;35840;45.982;8.890;2023-07-31T14:50:36;7.43;;;4.47;;
49948;SDS011;35840;45.982;8.890;2023-07-31T14:53:03;21.88;;;9.77;;
49948;SDS011;35840;45.982;8.890;2023-07-31T14:55:30;9.05;;;6.13;;
49948;SDS011;35840;45.982;8.890;2023-07-31T14:57:56;16.85;;;8.60;;
49948;SDS011;35840;45.982;8.890;2023-07-31T15:00:23;21.35;;;10.05;;